createdAt,value
2023-03-12T00:03:13.442Z,6.70
2023-03-12T00:08:18.195Z,6.64
2023-03-12T00:13:21.721Z,6.56
2023-03-12T00:18:25.136Z,6.66
2023-03-12T00:23:29.976Z,6.54
2023-03-12T00:28:34.848Z,6.56
2023-03-12T00:33:38.199Z,6.44
2023-03-12T00:38:43.302Z,6.40
2023-03-12T00:43:46.709Z,6.52
2023-03-12T00:48:50.124Z,6.71
2023-03-12T00:53:55.889Z,6.69
2023-03-12T00:59:00.704Z,6.75
2023-03-12T01:04:04.858Z,6.61
2023-03-12T01:09:10.082Z,6.49
2023-03-12T01:14:13.480Z,6.52
2023-03-12T01:19:16.858Z,6.50
2023-03-12T01:24:21.727Z,6.01
2023-03-12T01:29:25.179Z,6.45
2023-03-12T01:34:28.763Z,6.74
2023-03-12T01:39:34.687Z,6.70
2023-03-12T01:44:52.362Z,6.51
2023-03-12T01:49:56.869Z,6.60
2023-03-12T01:55:04.928Z,6.47
2023-03-12T02:00:11.934Z,6.33
2023-03-12T02:05:23.941Z,6.25
2023-03-12T02:10:29.171Z,6.25
2023-03-12T02:15:33.102Z,5.88
2023-03-12T02:20:41.024Z,6.34
2023-03-12T02:25:47.986Z,6.59
2023-03-12T02:30:53.601Z,6.00
2023-03-12T02:35:57.441Z,6.22
2023-03-12T02:41:07.028Z,6.48
2023-03-12T02:46:10.827Z,6.44
2023-03-12T02:51:14.762Z,6.58
2023-03-12T02:56:19.688Z,6.78
2023-03-12T03:01:23.404Z,6.75
2023-03-12T03:06:27.020Z,6.81
2023-03-12T03:11:32.539Z,6.81
2023-03-12T03:16:38.819Z,6.84
2023-03-12T03:21:43.739Z,6.76
2023-03-12T03:26:48.754Z,6.68
2023-03-12T03:31:52.291Z,6.60
2023-03-12T03:36:55.939Z,6.60
2023-03-12T03:42:01.654Z,6.58
2023-03-12T03:47:08.333Z,6.44
2023-03-12T03:52:12.016Z,6.30
2023-03-12T03:57:17.686Z,6.25
2023-03-12T04:02:21.377Z,6.15
2023-03-12T04:07:24.875Z,6.08
2023-03-12T04:12:29.883Z,5.95
2023-03-12T04:17:33.390Z,5.89
2023-03-12T04:22:38.566Z,5.87
2023-03-12T04:27:43.828Z,5.88
2023-03-12T04:32:47.637Z,5.77
2023-03-12T04:37:51.737Z,5.85
2023-03-12T04:42:56.814Z,5.87
2023-03-12T04:48:00.783Z,5.87
2023-03-12T04:53:04.383Z,5.95
2023-03-12T04:58:09.623Z,6.09
2023-03-12T05:03:13.763Z,6.13
2023-03-12T05:08:17.188Z,6.19
2023-03-12T05:13:23.371Z,6.27
2023-03-12T05:18:31.165Z,6.28
2023-03-12T05:23:35.501Z,6.27
2023-03-12T05:28:40.355Z,6.38
2023-03-12T05:33:44.368Z,6.41
2023-03-12T05:38:48.225Z,6.55
2023-03-12T05:43:56.103Z,6.73
2023-03-12T05:49:00.292Z,6.82
2023-03-12T05:54:04.562Z,6.74
2023-03-12T05:59:10.681Z,6.85
2023-03-12T06:04:15.680Z,6.95
2023-03-12T06:09:19.319Z,7.05
2023-03-12T06:14:25.532Z,7.22
2023-03-12T06:19:29.111Z,7.38
2023-03-12T06:24:32.671Z,7.68
2023-03-12T06:29:43.403Z,7.82
2023-03-12T06:34:46.818Z,8.38
2023-03-12T06:39:50.209Z,8.23
2023-03-12T06:44:55.074Z,8.36
2023-03-12T06:49:58.458Z,8.57
2023-03-12T06:55:01.899Z,8.62
2023-03-12T07:00:08.301Z,8.75
2023-03-12T07:05:11.829Z,8.72
2023-03-12T07:10:15.273Z,8.98
2023-03-12T07:15:20.075Z,9.15
2023-03-12T07:20:23.443Z,9.45
2023-03-12T07:25:26.909Z,9.46
2023-03-12T07:30:33.554Z,9.56
2023-03-12T07:35:38.610Z,9.77
2023-03-12T07:40:42.366Z,10.40
2023-03-12T07:45:47.319Z,10.42
2023-03-12T07:50:50.937Z,10.51
2023-03-12T07:55:55.948Z,10.84
2023-03-12T08:01:00.816Z,10.94
2023-03-12T08:06:05.587Z,11.25
2023-03-12T08:11:09.841Z,11.16
2023-03-12T08:16:15.613Z,11.58
2023-03-12T08:21:19.036Z,12.14
2023-03-12T08:26:22.410Z,12.42
2023-03-12T08:31:27.471Z,11.97
2023-03-12T08:36:30.953Z,12.41
2023-03-12T08:41:34.321Z,12.15
2023-03-12T08:46:39.015Z,12.49
2023-03-12T08:51:42.418Z,12.57
2023-03-12T08:56:46.657Z,12.31
2023-03-12T09:01:51.635Z,11.63
2023-03-12T09:06:55.073Z,11.67
2023-03-12T09:11:58.527Z,10.74
2023-03-12T09:17:03.813Z,11.70
2023-03-12T09:22:07.306Z,12.25
2023-03-12T09:27:10.688Z,12.15
2023-03-12T09:32:16.768Z,11.57
2023-03-12T09:37:22.385Z,12.79
2023-03-12T09:42:40.817Z,12.48
2023-03-12T09:47:48.803Z,13.42
2023-03-12T09:52:56.078Z,13.79
2023-03-12T09:57:59.762Z,14.17
2023-03-12T10:03:24.486Z,14.50
2023-03-12T10:08:34.464Z,14.48
2023-03-12T10:13:53.795Z,15.21
2023-03-12T10:19:07.132Z,14.41
2023-03-12T10:24:25.418Z,14.31
2023-03-12T10:29:31.750Z,13.00
2023-03-12T10:34:41.094Z,13.79
2023-03-12T10:39:44.558Z,13.88
2023-03-12T10:44:50.372Z,12.82
2023-03-12T10:49:55.309Z,13.17
2023-03-12T10:54:58.656Z,11.54
2023-03-12T11:00:11.906Z,11.67
2023-03-12T11:05:24.733Z,10.88
2023-03-12T11:10:40.176Z,10.77
2023-03-12T11:15:44.075Z,11.50
2023-03-12T11:20:50.153Z,11.42
2023-03-12T11:25:55.712Z,11.45
2023-03-12T11:30:59.515Z,12.90
2023-03-12T11:36:15.451Z,11.32
2023-03-12T11:41:31.796Z,12.83
2023-03-12T11:46:42.998Z,12.05
2023-03-12T11:51:54.824Z,11.46
2023-03-12T11:57:00.226Z,12.23
2023-03-12T12:02:18.331Z,11.96
2023-03-12T12:07:36.173Z,10.47
2023-03-12T12:12:49.421Z,11.68
2023-03-12T12:17:58.702Z,12.59
2023-03-12T12:23:16.768Z,12.16
2023-03-12T12:28:28.825Z,10.91
2023-03-12T12:33:44.983Z,10.96
2023-03-12T12:38:53.660Z,10.71
2023-03-12T12:44:00.096Z,11.64
2023-03-12T12:49:05.390Z,9.52
2023-03-12T12:54:16.629Z,11.03
2023-03-12T12:59:32.017Z,11.37
2023-03-12T13:04:38.084Z,10.56
2023-03-12T13:09:45.554Z,11.10
2023-03-12T13:14:50.465Z,11.16
2023-03-12T13:20:01.447Z,10.44
2023-03-12T13:25:21.358Z,9.79
2023-03-12T13:30:47.489Z,10.44
2023-03-12T13:36:07.837Z,10.72
2023-03-12T13:41:31.934Z,10.93
2023-03-12T13:46:43.496Z,11.43
2023-03-12T13:51:54.805Z,10.90
2023-03-12T13:57:02.559Z,11.19
2023-03-12T14:02:13.302Z,10.70
2023-03-12T14:07:39.406Z,11.13
2023-03-12T14:12:50.811Z,11.04
2023-03-12T14:17:59.515Z,10.42
2023-03-12T14:23:06.031Z,10.72
2023-03-12T14:28:15.494Z,11.12
2023-03-12T14:33:19.630Z,11.08
2023-03-12T14:38:26.561Z,11.03
2023-03-12T14:43:34.752Z,10.92
2023-03-12T14:48:38.657Z,11.42
2023-03-12T14:53:42.153Z,10.50
2023-03-12T14:58:48.827Z,11.19
2023-03-12T15:03:54.385Z,11.15
2023-03-12T15:09:02.571Z,11.04
2023-03-12T15:14:09.361Z,11.42
2023-03-12T15:19:13.438Z,11.47
2023-03-12T15:24:18.043Z,11.10
2023-03-12T15:29:27.432Z,11.05
2023-03-12T15:34:33.125Z,11.34
2023-03-12T15:39:38.160Z,11.05
2023-03-12T15:44:47.105Z,11.41
2023-03-12T15:49:53.345Z,11.24
2023-03-12T15:55:06.971Z,11.57
2023-03-12T16:00:22.578Z,11.27
2023-03-12T16:05:29.144Z,11.27
2023-03-12T16:10:36.089Z,11.76
2023-03-12T16:15:41.094Z,11.20
2023-03-12T16:20:44.892Z,11.88
2023-03-12T16:25:50.329Z,11.64
2023-03-12T16:30:55.409Z,11.81
2023-03-12T16:35:59.112Z,12.21
2023-03-12T16:41:02.550Z,12.22
2023-03-12T16:46:08.762Z,12.05
2023-03-12T16:51:14.783Z,12.85
2023-03-12T16:56:19.553Z,12.81
2023-03-12T17:01:26.688Z,13.09
2023-03-12T17:06:30.094Z,12.74
2023-03-12T17:11:33.805Z,12.53
2023-03-12T17:16:38.610Z,12.74
2023-03-12T17:21:43.184Z,12.75
2023-03-12T17:26:46.861Z,12.89
2023-03-12T17:31:51.988Z,13.34
2023-03-12T17:36:55.334Z,13.40
2023-03-12T17:41:58.676Z,12.96
2023-03-12T17:47:03.790Z,13.31
2023-03-12T17:52:07.706Z,12.85
2023-03-12T17:57:11.073Z,13.07
2023-03-12T18:02:15.916Z,12.88
2023-03-12T18:07:19.497Z,12.97
2023-03-12T18:12:22.881Z,13.25
2023-03-12T18:17:27.901Z,13.12
2023-03-12T18:22:31.307Z,13.39
2023-03-12T18:27:34.671Z,13.31
2023-03-12T18:32:39.702Z,13.38
2023-03-12T18:37:44.124Z,13.43
2023-03-12T18:42:47.519Z,13.52
2023-03-12T18:47:52.320Z,13.65
2023-03-12T18:52:55.788Z,13.58
2023-03-12T18:57:59.389Z,13.51
2023-03-12T19:03:05.058Z,13.56
2023-03-12T19:08:08.446Z,13.78
2023-03-12T19:13:11.949Z,13.57
2023-03-12T19:18:16.701Z,13.73
2023-03-12T19:23:20.157Z,14.12
2023-03-12T19:28:23.560Z,14.07
2023-03-12T19:33:28.735Z,14.10
2023-03-12T19:38:32.515Z,14.20
2023-03-12T19:43:36.180Z,14.58
2023-03-12T19:48:41.177Z,14.94
2023-03-12T19:53:45.053Z,14.80
2023-03-12T19:58:48.459Z,14.72
2023-03-12T20:03:53.165Z,14.70
2023-03-12T20:08:56.511Z,14.47
2023-03-12T20:13:59.971Z,14.79
2023-03-12T20:19:04.974Z,14.66
2023-03-12T20:24:08.464Z,14.70
2023-03-12T20:29:11.854Z,14.56
2023-03-12T20:34:16.565Z,14.70
2023-03-12T20:39:20.158Z,14.53
2023-03-12T20:44:23.770Z,14.22
2023-03-12T20:49:28.579Z,14.76
2023-03-12T20:54:32.654Z,14.22
2023-03-12T20:59:35.998Z,14.43
2023-03-12T21:04:41.029Z,14.46
2023-03-12T21:09:44.427Z,14.55
2023-03-12T21:14:47.960Z,15.09
2023-03-12T21:19:52.745Z,14.75
2023-03-12T21:24:56.179Z,14.98
2023-03-12T21:30:00.808Z,14.78
2023-03-12T21:35:07.217Z,14.64
2023-03-12T21:40:12.146Z,14.86
2023-03-12T21:45:15.541Z,14.22
2023-03-12T21:50:21.205Z,14.53
2023-03-12T21:55:24.660Z,14.49
2023-03-12T22:00:28.368Z,14.61
2023-03-12T22:05:33.110Z,14.66
2023-03-12T22:10:36.567Z,14.71
2023-03-12T22:15:40.025Z,15.00
2023-03-12T22:20:51.392Z,15.22
2023-03-12T22:25:54.876Z,14.92
2023-03-12T22:30:59.595Z,15.52
2023-03-12T22:36:07.878Z,14.84
2023-03-12T22:41:16.564Z,15.04
2023-03-12T22:46:21.938Z,15.12
2023-03-12T22:51:27.511Z,14.90
2023-03-12T22:56:31.043Z,15.09
2023-03-12T23:01:34.580Z,15.14
2023-03-12T23:06:39.767Z,14.64
2023-03-12T23:11:43.222Z,14.93
2023-03-12T23:16:46.847Z,14.91
2023-03-12T23:21:51.713Z,15.16
2023-03-12T23:26:55.375Z,14.79
2023-03-12T23:31:58.921Z,15.64
2023-03-12T23:37:03.735Z,15.09
2023-03-12T23:42:07.740Z,15.51
2023-03-12T23:47:11.129Z,15.80
2023-03-12T23:52:15.888Z,15.32
2023-03-12T23:57:19.347Z,15.72
